createdAt,value
2017-08-07T00:02:15.099Z,96.40
2017-08-07T00:04:43.368Z,96.50
2017-08-07T00:07:11.623Z,96.60
2017-08-07T00:09:39.932Z,96.60
2017-08-07T00:12:08.200Z,96.80
2017-08-07T00:14:36.471Z,96.80
2017-08-07T00:17:04.783Z,96.60
2017-08-07T00:19:33.053Z,96.80
2017-08-07T00:22:01.309Z,96.80
2017-08-07T00:24:29.612Z,96.70
2017-08-07T00:26:57.868Z,96.60
2017-08-07T00:29:26.163Z,96.90
2017-08-07T00:31:54.452Z,96.80
2017-08-07T00:34:22.711Z,96.80
2017-08-07T00:36:50.996Z,96.80
2017-08-07T00:39:19.296Z,96.90
2017-08-07T00:41:47.551Z,96.80
2017-08-07T00:44:15.810Z,97.00
2017-08-07T00:46:44.100Z,96.80
2017-08-07T00:49:12.415Z,96.70
2017-08-07T00:51:40.684Z,96.80
2017-08-07T00:54:08.934Z,97.00
2017-08-07T00:56:37.236Z,96.80
2017-08-07T00:59:05.507Z,96.70
2017-08-07T01:01:33.776Z,96.90
2017-08-07T01:04:02.068Z,96.90
2017-08-07T01:06:30.315Z,96.90
2017-08-07T01:08:58.569Z,97.10
2017-08-07T01:11:26.874Z,97.20
2017-08-07T01:13:55.140Z,97.10
2017-08-07T01:16:23.432Z,96.90
2017-08-07T01:18:51.702Z,96.90
2017-08-07T01:21:19.997Z,96.90
2017-08-07T01:23:48.249Z,97.10
2017-08-07T01:26:16.509Z,97.10
2017-08-07T01:28:44.807Z,97.00
2017-08-07T01:31:13.072Z,96.80
2017-08-07T01:33:41.328Z,97.00
2017-08-07T01:36:09.611Z,96.80
2017-08-07T01:38:37.864Z,97.00
2017-08-07T01:41:06.200Z,96.90
2017-08-07T01:43:34.448Z,97.00
2017-08-07T01:46:02.709Z,97.00
2017-08-07T01:48:30.993Z,97.00
2017-08-07T01:50:59.279Z,97.10
2017-08-07T01:53:27.530Z,97.00
2017-08-07T01:55:55.823Z,96.90
2017-08-07T01:58:24.091Z,96.90
2017-08-07T02:00:52.347Z,96.90
2017-08-07T02:03:22.609Z,97.00
2017-08-07T02:05:50.873Z,97.00
2017-08-07T02:08:19.132Z,97.10
2017-08-07T02:10:47.433Z,97.10
2017-08-07T02:13:15.688Z,97.00
2017-08-07T02:15:43.943Z,97.10
2017-08-07T02:18:12.233Z,97.10
2017-08-07T02:20:40.484Z,97.20
2017-08-07T02:23:08.784Z,97.00
2017-08-07T02:25:37.044Z,96.80
2017-08-07T02:28:05.307Z,97.00
2017-08-07T02:30:33.610Z,97.00
2017-08-07T02:33:01.890Z,97.30
2017-08-07T02:35:30.144Z,97.40
2017-08-07T02:37:58.483Z,97.40
2017-08-07T02:40:26.740Z,97.80
2017-08-07T02:42:55.006Z,97.40
2017-08-07T02:45:23.304Z,97.10
2017-08-07T02:47:55.367Z,97.00
2017-08-07T02:50:23.788Z,97.10
2017-08-07T02:52:52.045Z,97.20
2017-08-07T02:55:20.307Z,97.10
2017-08-07T02:57:48.591Z,97.30
2017-08-07T03:00:16.848Z,97.30
2017-08-07T03:02:45.155Z,97.30
2017-08-07T03:05:13.419Z,97.30
2017-08-07T03:07:41.678Z,97.40
2017-08-07T03:10:09.966Z,97.40
2017-08-07T03:12:38.240Z,97.50
2017-08-07T03:15:06.856Z,97.50
2017-08-07T03:17:35.121Z,97.20
2017-08-07T03:20:03.376Z,97.30
2017-08-07T03:22:31.663Z,97.30
2017-08-07T03:24:59.928Z,97.40
2017-08-07T03:27:28.215Z,97.30
2017-08-07T03:29:56.487Z,97.40
2017-08-07T03:32:24.748Z,97.50
2017-08-07T03:34:53.025Z,97.40
2017-08-07T03:37:21.282Z,97.20
2017-08-07T03:39:49.567Z,97.30
2017-08-07T03:42:18.750Z,97.20
2017-08-07T03:44:47.033Z,97.40
2017-08-07T03:47:15.288Z,97.20
2017-08-07T03:49:43.582Z,97.10
2017-08-07T03:52:11.888Z,97.10
2017-08-07T03:54:40.159Z,97.20
2017-08-07T03:57:08.426Z,97.10
2017-08-07T03:59:36.731Z,97.20
2017-08-07T04:02:04.998Z,97.20
2017-08-07T04:04:33.263Z,97.60
2017-08-07T04:07:02.471Z,97.20
2017-08-07T04:09:30.781Z,97.70
2017-08-07T04:11:59.031Z,97.20
2017-08-07T04:14:27.285Z,97.10
2017-08-07T04:16:55.579Z,97.20
2017-08-07T04:19:23.865Z,97.40
2017-08-07T04:21:52.117Z,97.50
2017-08-07T04:24:20.362Z,97.70
2017-08-07T04:26:48.658Z,97.60
2017-08-07T04:29:16.966Z,97.70
2017-08-07T04:31:46.235Z,97.80
2017-08-07T04:34:14.491Z,97.80
2017-08-07T04:36:42.822Z,97.60
2017-08-07T04:39:11.083Z,97.70
2017-08-07T04:41:39.344Z,97.80
2017-08-07T04:44:07.643Z,97.80
2017-08-07T04:46:35.912Z,98.30
2017-08-07T04:49:04.181Z,97.90
2017-08-07T04:51:32.477Z,98.00
2017-08-07T04:54:00.732Z,97.90
2017-08-07T04:56:28.983Z,97.70
2017-08-07T04:58:57.282Z,97.80
2017-08-07T05:01:25.547Z,98.00
2017-08-07T05:03:53.808Z,98.30
2017-08-07T05:06:22.133Z,98.30
2017-08-07T05:08:50.410Z,98.30
2017-08-07T05:11:18.668Z,98.50
2017-08-07T05:13:46.963Z,98.80
2017-08-07T05:16:15.213Z,98.90
2017-08-07T05:18:43.509Z,98.80
2017-08-07T05:21:11.821Z,98.60
2017-08-07T05:23:40.086Z,98.60
2017-08-07T05:26:08.344Z,98.30
2017-08-07T05:28:36.655Z,98.30
2017-08-07T05:31:07.930Z,99.00
2017-08-07T05:33:36.247Z,98.80
2017-08-07T05:36:04.516Z,98.70
2017-08-07T05:38:32.778Z,98.90
2017-08-07T05:41:01.087Z,98.50
2017-08-07T05:43:29.343Z,98.90
2017-08-07T05:45:57.616Z,99.10
2017-08-07T05:48:25.931Z,99.50
2017-08-07T05:50:54.199Z,98.80
2017-08-07T05:53:22.456Z,99.00
2017-08-07T05:55:50.763Z,99.00
2017-08-07T05:58:19.027Z,98.60
2017-08-07T06:00:47.287Z,98.80
2017-08-07T06:03:15.583Z,98.90
2017-08-07T06:05:43.850Z,99.20
2017-08-07T06:08:12.147Z,98.90
2017-08-07T06:10:40.407Z,98.90
2017-08-07T06:13:08.700Z,99.00
2017-08-07T06:15:37.001Z,99.20
2017-08-07T06:18:05.280Z,98.50
2017-08-07T06:20:32.865Z,98.50
2017-08-07T06:23:01.131Z,99.00
2017-08-07T06:25:29.401Z,98.90
2017-08-07T06:27:57.718Z,98.60
2017-08-07T06:30:26.011Z,99.00
2017-08-07T06:32:54.287Z,99.00
2017-08-07T06:35:22.600Z,97.80
2017-08-07T06:37:50.854Z,98.40
2017-08-07T06:40:25.111Z,98.50
2017-08-07T06:42:53.382Z,98.60
2017-08-07T06:45:21.653Z,98.50
2017-08-07T06:47:49.949Z,98.10
2017-08-07T06:50:18.222Z,98.00
2017-08-07T06:52:46.509Z,98.50
2017-08-07T06:55:14.809Z,97.50
2017-08-07T06:57:43.070Z,97.30
2017-08-07T07:00:11.340Z,96.60
2017-08-07T07:02:39.639Z,96.00
2017-08-07T07:05:07.892Z,97.10
2017-08-07T07:07:36.152Z,96.20
2017-08-07T07:10:04.459Z,94.70
2017-08-07T07:12:32.718Z,93.50
2017-08-07T07:15:00.976Z,93.70
2017-08-07T07:17:29.281Z,93.10
2017-08-07T07:19:57.529Z,94.00
2017-08-07T07:22:25.797Z,93.40
2017-08-07T07:24:54.107Z,95.20
2017-08-07T07:27:22.395Z,94.90
2017-08-07T07:29:50.661Z,95.60
2017-08-07T07:32:18.971Z,94.30
2017-08-07T07:34:47.235Z,93.60
2017-08-07T07:37:15.494Z,94.40
2017-08-07T07:39:43.790Z,93.80
2017-08-07T07:42:12.057Z,94.50
2017-08-07T07:44:40.316Z,95.50
2017-08-07T07:47:08.606Z,94.70
2017-08-07T07:49:36.858Z,94.60
2017-08-07T07:52:05.148Z,92.20
2017-08-07T07:54:33.407Z,91.90
2017-08-07T07:57:01.659Z,90.20
2017-08-07T07:59:29.977Z,90.30
2017-08-07T08:01:58.249Z,90.50
2017-08-07T08:04:26.533Z,91.60
2017-08-07T08:06:54.838Z,91.00
2017-08-07T08:09:23.097Z,91.20
2017-08-07T08:11:51.355Z,89.90
2017-08-07T08:14:19.680Z,89.50
2017-08-07T08:16:47.952Z,90.70
2017-08-07T08:19:16.216Z,91.40
2017-08-07T08:21:44.530Z,90.90
2017-08-07T08:24:12.785Z,90.60
2017-08-07T08:26:41.045Z,91.80
2017-08-07T08:29:09.341Z,91.10
2017-08-07T08:31:37.699Z,88.70
2017-08-07T08:34:05.968Z,89.20
2017-08-07T08:36:34.303Z,87.40
2017-08-07T08:39:02.580Z,86.60
2017-08-07T08:41:30.849Z,87.20
2017-08-07T08:43:59.135Z,85.20
2017-08-07T08:46:27.420Z,84.90
2017-08-07T08:48:55.714Z,84.20
2017-08-07T08:51:23.983Z,85.60
2017-08-07T08:53:52.257Z,87.00
2017-08-07T08:56:20.572Z,85.40
2017-08-07T08:58:48.824Z,84.40
2017-08-07T09:01:17.082Z,83.50
2017-08-07T09:03:45.373Z,83.10
2017-08-07T09:06:13.645Z,82.80
2017-08-07T09:08:41.181Z,82.80
2017-08-07T09:11:09.449Z,82.90
2017-08-07T09:13:37.717Z,86.80
2017-08-07T09:16:06.032Z,84.90
2017-08-07T09:18:34.295Z,81.30
2017-08-07T09:21:02.568Z,80.30
2017-08-07T09:23:30.889Z,82.10
2017-08-07T09:25:59.153Z,80.60
2017-08-07T09:28:27.403Z,76.70
2017-08-07T09:30:55.687Z,77.80
2017-08-07T09:33:23.950Z,74.30
2017-08-07T09:35:52.252Z,78.50
2017-08-07T09:38:20.515Z,74.40
2017-08-07T09:40:48.775Z,73.20
2017-08-07T09:43:17.076Z,74.30
2017-08-07T09:45:45.340Z,75.70
2017-08-07T09:48:12.870Z,75.70
2017-08-07T09:50:41.131Z,77.80
2017-08-07T09:53:09.428Z,75.70
2017-08-07T09:55:37.695Z,78.60
2017-08-07T09:58:05.186Z,78.50
2017-08-07T10:00:33.481Z,74.00
2017-08-07T10:03:01.743Z,74.70
2017-08-07T10:05:30.053Z,75.70
2017-08-07T10:07:58.377Z,73.60
2017-08-07T10:10:26.648Z,71.00
2017-08-07T10:12:54.923Z,74.10
2017-08-07T10:15:23.231Z,76.20
2017-08-07T10:17:51.488Z,75.80
2017-08-07T10:20:19.749Z,76.00
2017-08-07T10:22:48.042Z,71.60
2017-08-07T10:25:15.531Z,71.60
2017-08-07T10:27:43.827Z,71.60
2017-08-07T10:30:12.105Z,71.50
2017-08-07T10:32:40.400Z,67.50
2017-08-07T10:35:08.691Z,65.10
2017-08-07T10:37:36.958Z,66.90
2017-08-07T10:40:04.534Z,66.90
2017-08-07T10:42:32.792Z,70.10
2017-08-07T10:45:01.063Z,66.40
2017-08-07T10:47:29.368Z,64.30
2017-08-07T10:49:57.624Z,65.00
2017-08-07T10:52:25.897Z,63.60
2017-08-07T10:54:54.203Z,65.10
2017-08-07T10:57:22.461Z,66.20
2017-08-07T10:59:50.723Z,66.90
2017-08-07T11:02:19.034Z,67.60
2017-08-07T11:04:47.290Z,65.20
2017-08-07T11:07:15.578Z,65.00
2017-08-07T11:09:43.077Z,65.00
2017-08-07T11:12:11.390Z,65.40
2017-08-07T11:14:39.653Z,67.10
2017-08-07T11:17:07.929Z,64.30
2017-08-07T11:19:36.227Z,65.60
2017-08-07T11:22:04.491Z,62.90
2017-08-07T11:24:32.779Z,67.30
2017-08-07T11:27:01.038Z,63.60
2017-08-07T11:29:29.352Z,68.80
2017-08-07T11:31:57.609Z,66.30
2017-08-07T11:34:25.879Z,62.20
2017-08-07T11:36:54.159Z,68.90
2017-08-07T11:39:22.428Z,59.70
2017-08-07T11:41:50.739Z,56.20
2017-08-07T11:44:19.001Z,56.40
2017-08-07T11:46:47.260Z,59.40
2017-08-07T11:49:15.555Z,58.20
2017-08-07T11:51:43.806Z,58.20
2017-08-07T11:54:12.106Z,58.20
2017-08-07T11:56:40.364Z,56.80
2017-08-07T11:59:08.620Z,58.50
2017-08-07T12:01:37.756Z,57.70
2017-08-07T12:04:06.023Z,59.40
2017-08-07T12:06:34.288Z,59.70
2017-08-07T12:09:02.579Z,57.30
2017-08-07T12:11:30.837Z,60.50
2017-08-07T12:13:59.095Z,55.80
2017-08-07T12:16:27.382Z,59.80
2017-08-07T12:18:55.640Z,61.40
2017-08-07T12:21:23.938Z,65.50
2017-08-07T12:23:52.228Z,63.50
2017-08-07T12:26:19.722Z,63.40
2017-08-07T12:28:48.040Z,57.80
2017-08-07T12:31:16.306Z,57.20
2017-08-07T12:33:44.563Z,58.10
2017-08-07T12:36:12.859Z,57.30
2017-08-07T12:38:41.110Z,56.40
2017-08-07T12:41:09.372Z,54.80
2017-08-07T12:43:37.670Z,57.00
2017-08-07T12:46:05.925Z,54.40
2017-08-07T12:48:34.190Z,58.60
2017-08-07T12:51:02.475Z,59.20
2017-08-07T12:53:30.731Z,57.00
2017-08-07T12:55:59.012Z,57.20
2017-08-07T12:58:27.306Z,56.50
2017-08-07T13:00:55.581Z,56.30
2017-08-07T13:03:23.924Z,59.90
2017-08-07T13:05:52.180Z,60.00
2017-08-07T13:08:20.439Z,57.40
2017-08-07T13:10:48.788Z,55.30
2017-08-07T13:13:17.060Z,57.10
2017-08-07T13:15:45.328Z,57.00
2017-08-07T13:18:13.608Z,56.80
2017-08-07T13:20:41.871Z,56.00
2017-08-07T13:23:10.171Z,54.20
2017-08-07T13:25:38.436Z,56.90
2017-08-07T13:28:06.711Z,58.30
2017-08-07T13:30:35.012Z,56.00
2017-08-07T13:33:03.283Z,56.00
2017-08-07T13:35:31.589Z,56.10
2017-08-07T13:37:59.848Z,58.50
2017-08-07T13:40:28.140Z,57.50
2017-08-07T13:42:56.458Z,59.50
2017-08-07T13:45:24.713Z,59.60
2017-08-07T13:47:52.981Z,58.50
2017-08-07T13:50:21.271Z,59.10
2017-08-07T13:52:49.548Z,56.00
2017-08-07T13:55:17.813Z,56.20
2017-08-07T13:57:46.088Z,56.70
2017-08-07T14:00:14.346Z,58.30
2017-08-07T14:02:42.649Z,53.60
2017-08-07T14:05:10.958Z,55.90
2017-08-07T14:07:39.221Z,57.20
2017-08-07T14:10:07.475Z,56.00
2017-08-07T14:12:35.772Z,56.50
2017-08-07T14:15:04.050Z,57.40
2017-08-07T14:17:32.315Z,54.40
2017-08-07T14:20:00.628Z,57.70
2017-08-07T14:22:28.906Z,56.90
2017-08-07T14:24:56.441Z,56.70
2017-08-07T14:27:24.729Z,56.90
2017-08-07T14:29:52.991Z,58.00
2017-08-07T14:32:21.291Z,54.10
2017-08-07T14:34:49.565Z,53.10
2017-08-07T14:37:17.843Z,53.80
2017-08-07T14:39:46.105Z,56.40
2017-08-07T14:42:14.408Z,56.40
2017-08-07T14:44:42.671Z,54.80
2017-08-07T14:47:10.941Z,57.30
2017-08-07T14:49:39.235Z,56.30
2017-08-07T14:52:07.534Z,56.00
2017-08-07T14:54:35.837Z,55.40
2017-08-07T14:57:04.100Z,58.20
2017-08-07T14:59:32.355Z,54.30
2017-08-07T15:02:00.649Z,54.30
2017-08-07T15:04:28.911Z,53.90
2017-08-07T15:06:57.200Z,51.80
2017-08-07T15:09:25.452Z,54.50
2017-08-07T15:11:53.763Z,52.10
2017-08-07T15:14:22.035Z,51.80
2017-08-07T15:16:50.289Z,52.60
2017-08-07T15:19:19.579Z,54.10
2017-08-07T15:21:47.843Z,54.30
2017-08-07T15:24:15.372Z,54.20
2017-08-07T15:26:43.634Z,52.90
2017-08-07T15:29:11.959Z,53.20
2017-08-07T15:31:40.228Z,53.20
2017-08-07T15:34:08.512Z,53.40
2017-08-07T15:36:36.811Z,55.00
2017-08-07T15:39:05.115Z,53.90
2017-08-07T15:41:33.395Z,53.40
2017-08-07T15:44:01.686Z,52.60
2017-08-07T15:46:29.989Z,54.40
2017-08-07T15:48:58.247Z,55.40
2017-08-07T15:51:25.786Z,55.40
2017-08-07T15:53:54.068Z,54.20
2017-08-07T15:56:22.329Z,56.00
2017-08-07T15:58:50.639Z,54.10
2017-08-07T16:01:18.900Z,56.60
2017-08-07T16:03:47.176Z,54.60
2017-08-07T16:06:16.119Z,56.90
2017-08-07T16:08:44.389Z,58.10
2017-08-07T16:11:12.651Z,57.40
2017-08-07T16:13:40.949Z,55.20
2017-08-07T16:16:09.220Z,53.90
2017-08-07T16:18:37.517Z,54.30
2017-08-07T16:21:05.776Z,55.80
2017-08-07T16:23:34.084Z,58.70
2017-08-07T16:26:02.353Z,60.00
2017-08-07T16:28:30.618Z,58.70
2017-08-07T16:30:58.912Z,56.10
2017-08-07T16:33:27.181Z,57.90
2017-08-07T16:35:55.457Z,56.00
2017-08-07T16:38:23.774Z,60.40
2017-08-07T16:40:52.066Z,56.40
2017-08-07T16:43:20.370Z,54.70
2017-08-07T16:45:48.640Z,57.00
2017-08-07T16:48:16.913Z,57.60
2017-08-07T16:50:45.199Z,58.50
2017-08-07T16:53:13.464Z,59.40
2017-08-07T16:55:41.796Z,61.60
2017-08-07T16:58:10.063Z,59.00
2017-08-07T17:00:38.321Z,57.60
2017-08-07T17:03:06.609Z,57.30
2017-08-07T17:05:34.911Z,56.70
2017-08-07T17:08:03.219Z,57.20
2017-08-07T17:10:31.475Z,58.60
2017-08-07T17:12:59.735Z,58.40
2017-08-07T17:15:32.463Z,56.80
2017-08-07T17:18:00.726Z,57.90
2017-08-07T17:20:28.986Z,57.60
2017-08-07T17:22:57.287Z,59.50
2017-08-07T17:25:25.547Z,59.40
2017-08-07T17:27:53.841Z,61.50
2017-08-07T17:30:22.113Z,59.70
2017-08-07T17:32:50.422Z,58.50
2017-08-07T17:35:18.699Z,62.80
2017-08-07T17:37:46.965Z,61.30
2017-08-07T17:40:15.259Z,61.20
2017-08-07T17:42:43.563Z,59.50
2017-08-07T17:45:11.823Z,60.60
2017-08-07T17:47:40.113Z,60.80
2017-08-07T17:50:08.404Z,59.70
2017-08-07T17:52:36.663Z,59.60
2017-08-07T17:55:04.969Z,62.80
2017-08-07T17:57:33.247Z,63.20
2017-08-07T18:00:01.515Z,66.10
2017-08-07T18:02:29.810Z,64.10
2017-08-07T18:04:58.072Z,62.50
2017-08-07T18:07:26.363Z,62.70
2017-08-07T18:09:54.679Z,64.00
2017-08-07T18:12:22.953Z,67.00
2017-08-07T18:14:51.213Z,64.80
2017-08-07T18:17:19.520Z,65.40
2017-08-07T18:19:47.783Z,66.10
2017-08-07T18:22:16.074Z,66.10
2017-08-07T18:24:44.389Z,67.10
2017-08-07T18:27:12.656Z,66.00
2017-08-07T18:29:40.947Z,67.80
2017-08-07T18:32:09.216Z,67.40
2017-08-07T18:34:37.501Z,68.10
2017-08-07T18:37:05.811Z,67.80
2017-08-07T18:39:34.076Z,67.10
2017-08-07T18:42:02.344Z,66.60
2017-08-07T18:44:30.619Z,67.00
2017-08-07T18:46:58.885Z,67.50
2017-08-07T18:49:26.460Z,67.40
2017-08-07T18:51:54.716Z,67.90
2017-08-07T18:54:23.000Z,68.20
2017-08-07T18:56:51.317Z,68.80
2017-08-07T18:59:19.659Z,70.10
2017-08-07T19:01:47.944Z,69.80
2017-08-07T19:04:16.222Z,72.20
2017-08-07T19:06:44.528Z,72.90
2017-08-07T19:09:12.788Z,72.80
2017-08-07T19:11:41.049Z,73.90
2017-08-07T19:14:09.416Z,74.80
2017-08-07T19:16:37.676Z,76.30
2017-08-07T19:19:05.947Z,76.10
2017-08-07T19:21:34.250Z,77.00
2017-08-07T19:24:02.553Z,77.30
2017-08-07T19:26:30.841Z,77.50
2017-08-07T19:28:59.150Z,78.50
2017-08-07T19:31:26.654Z,79.30
2017-08-07T19:33:54.932Z,79.40
2017-08-07T19:36:23.219Z,79.90
2017-08-07T19:38:51.480Z,80.90
2017-08-07T19:41:19.763Z,81.20
2017-08-07T19:43:48.019Z,80.50
2017-08-07T19:46:16.315Z,80.20
2017-08-07T19:48:44.613Z,79.50
2017-08-07T19:51:12.874Z,79.70
2017-08-07T19:53:41.176Z,80.20
2017-08-07T19:56:09.439Z,80.40
2017-08-07T19:58:37.697Z,81.40
2017-08-07T20:01:05.983Z,81.80
2017-08-07T20:03:34.241Z,81.60
2017-08-07T20:06:02.556Z,82.00
2017-08-07T20:08:30.832Z,82.10
2017-08-07T20:10:59.104Z,82.10
2017-08-07T20:13:27.409Z,82.20
2017-08-07T20:15:55.706Z,83.20
2017-08-07T20:18:23.969Z,82.70
2017-08-07T20:20:52.277Z,82.20
2017-08-07T20:23:20.541Z,82.60
2017-08-07T20:25:48.832Z,83.20
2017-08-07T20:28:17.111Z,82.70
2017-08-07T20:30:45.372Z,82.30
2017-08-07T20:33:13.663Z,81.30
2017-08-07T20:35:42.908Z,82.50
2017-08-07T20:38:11.231Z,83.70
2017-08-07T20:40:39.500Z,83.60
2017-08-07T20:43:07.764Z,82.50
2017-08-07T20:45:36.062Z,83.90
2017-08-07T20:48:04.353Z,84.10
2017-08-07T20:50:32.619Z,84.30
2017-08-07T20:53:00.909Z,83.30
2017-08-07T20:55:29.180Z,83.90
2017-08-07T20:57:57.489Z,84.30
2017-08-07T21:00:25.781Z,81.60
2017-08-07T21:02:54.049Z,82.70
2017-08-07T21:05:22.344Z,83.90
2017-08-07T21:07:50.628Z,84.40
2017-08-07T21:10:18.179Z,84.40
2017-08-07T21:12:46.448Z,83.90
2017-08-07T21:15:14.723Z,85.60
2017-08-07T21:17:43.019Z,81.80
2017-08-07T21:20:11.275Z,82.70
2017-08-07T21:22:39.582Z,83.00
2017-08-07T21:25:07.843Z,82.80
2017-08-07T21:27:36.115Z,82.90
2017-08-07T21:30:04.420Z,81.10
2017-08-07T21:32:32.685Z,81.60
2017-08-07T21:35:00.950Z,82.70
2017-08-07T21:37:29.237Z,82.50
2017-08-07T21:39:57.499Z,84.20
2017-08-07T21:42:25.789Z,83.20
2017-08-07T21:44:54.060Z,84.30
2017-08-07T21:47:22.364Z,85.20
2017-08-07T21:49:50.669Z,82.30
2017-08-07T21:52:18.937Z,82.40
2017-08-07T21:54:47.253Z,83.80
2017-08-07T21:57:14.751Z,83.80
2017-08-07T21:59:43.017Z,85.30
2017-08-07T22:02:11.321Z,84.00
2017-08-07T22:04:39.600Z,84.30
2017-08-07T22:07:07.918Z,84.50
2017-08-07T22:09:36.199Z,84.70
2017-08-07T22:12:04.463Z,85.70
2017-08-07T22:14:32.765Z,85.60
2017-08-07T22:17:01.034Z,86.90
2017-08-07T22:19:29.343Z,87.00
2017-08-07T22:21:57.612Z,86.80
2017-08-07T22:24:25.873Z,87.30
2017-08-07T22:26:54.174Z,87.00
2017-08-07T22:29:22.445Z,87.00
2017-08-07T22:31:50.749Z,87.50
2017-08-07T22:34:18.251Z,87.30
2017-08-07T22:36:45.751Z,86.00
2017-08-07T22:39:14.060Z,84.30
2017-08-07T22:41:42.323Z,83.20
2017-08-07T22:44:10.599Z,84.20
2017-08-07T22:46:38.901Z,85.00
2017-08-07T22:49:07.173Z,83.90
2017-08-07T22:51:35.796Z,84.50
2017-08-07T22:54:04.122Z,84.10
2017-08-07T22:56:32.378Z,84.30
2017-08-07T22:59:00.657Z,85.00
2017-08-07T23:01:28.984Z,84.80
2017-08-07T23:03:57.259Z,85.20
2017-08-07T23:06:25.538Z,85.00
2017-08-07T23:08:53.876Z,85.40
2017-08-07T23:11:22.157Z,86.00
2017-08-07T23:13:50.440Z,87.20
2017-08-07T23:16:18.738Z,86.60
2017-08-07T23:18:47.035Z,86.70
2017-08-07T23:21:15.345Z,87.20
2017-08-07T23:23:43.620Z,88.10
2017-08-07T23:26:11.910Z,88.50
2017-08-07T23:28:40.208Z,88.90
2017-08-07T23:31:08.477Z,89.60
2017-08-07T23:33:36.787Z,89.10
2017-08-07T23:36:05.055Z,88.00
2017-08-07T23:38:33.347Z,88.40
2017-08-07T23:41:01.688Z,89.90
2017-08-07T23:43:29.962Z,88.90
2017-08-07T23:45:58.234Z,88.50
2017-08-07T23:48:26.581Z,89.10
2017-08-07T23:50:54.864Z,89.30
2017-08-07T23:53:23.165Z,89.70
2017-08-07T23:55:51.497Z,89.60
2017-08-07T23:58:19.775Z,89.40
